createdAt,value
2023-11-15T00:01:08.852Z,97187.97
2023-11-15T00:03:55.106Z,97194.03
2023-11-15T00:06:24.188Z,97208.63
2023-11-15T00:08:52.405Z,97209.03
2023-11-15T00:11:20.325Z,97213.59
2023-11-15T00:13:51.746Z,97210.31
2023-11-15T00:16:19.541Z,97200.31
2023-11-15T00:18:47.166Z,97196.78
2023-11-15T00:21:15.647Z,97201.97
2023-11-15T00:23:44.460Z,97205.53
2023-11-15T00:26:11.992Z,97216.75
2023-11-15T00:28:44.593Z,97215.72
2023-11-15T00:31:12.918Z,97225.72
2023-11-15T00:33:58.607Z,97226.31
2023-11-15T00:36:26.276Z,97232.38
2023-11-15T00:39:13.781Z,97243.19
2023-11-15T00:41:41.871Z,97235.28
2023-11-15T00:44:09.385Z,97231.53
2023-11-15T00:46:37.241Z,97223.00
2023-11-15T00:49:04.981Z,97219.28
2023-11-15T00:51:32.419Z,97221.16
2023-11-15T00:54:00.148Z,97219.28
2023-11-15T00:56:29.231Z,97225.28
2023-11-15T00:58:57.900Z,97234.50
2023-11-15T01:01:28.673Z,97240.94
2023-11-15T01:04:14.966Z,97234.69
2023-11-15T01:06:42.457Z,97240.56
2023-11-15T01:09:11.419Z,97249.28
2023-11-15T01:11:40.428Z,97258.25
2023-11-15T01:14:08.032Z,97276.41
2023-11-15T01:16:37.479Z,97272.03
2023-11-15T01:19:23.721Z,97285.38
2023-11-15T01:21:51.702Z,97283.31
2023-11-15T01:24:40.733Z,97287.25
2023-11-15T01:27:09.705Z,97294.53
2023-11-15T01:29:37.361Z,97302.22
2023-11-15T01:32:05.060Z,97303.88
2023-11-15T01:34:33.884Z,97312.41
2023-11-15T01:37:01.427Z,97316.59
2023-11-15T01:39:30.883Z,97308.66
2023-11-15T01:41:58.357Z,97309.06
2023-11-15T01:44:28.475Z,97318.25
2023-11-15T01:46:56.123Z,97318.25
2023-11-15T01:49:24.350Z,97328.25
2023-11-15T01:51:52.312Z,97331.19
2023-11-15T01:54:22.661Z,97334.09
2023-11-15T01:56:50.533Z,97336.19
2023-11-15T01:59:18.196Z,97340.78
2023-11-15T02:01:48.624Z,97333.69
2023-11-15T02:04:16.390Z,97335.34
2023-11-15T02:06:43.936Z,97341.56
2023-11-15T02:09:11.632Z,97342.44
2023-11-15T02:11:39.854Z,97351.38
2023-11-15T02:14:07.350Z,97344.50
2023-11-15T02:16:34.870Z,97348.91
2023-11-15T02:19:03.726Z,97349.69
2023-11-15T02:21:31.269Z,97358.66
2023-11-15T02:24:00.319Z,97360.53
2023-11-15T02:26:47.907Z,97358.66
2023-11-15T02:29:15.472Z,97365.75
2023-11-15T02:31:42.977Z,97369.09
2023-11-15T02:34:10.628Z,97368.47
2023-11-15T02:36:38.080Z,97372.44
2023-11-15T02:39:09.972Z,97380.56
2023-11-15T02:41:37.523Z,97379.09
2023-11-15T02:44:05.681Z,97384.72
2023-11-15T02:46:33.705Z,97391.59
2023-11-15T02:49:19.665Z,97383.06
2023-11-15T02:51:50.198Z,97382.84
2023-11-15T02:54:19.413Z,97396.19
2023-11-15T02:56:46.951Z,97389.69
2023-11-15T02:59:14.524Z,97395.97
2023-11-15T03:01:46.938Z,97400.53
2023-11-15T03:04:14.750Z,97408.88
2023-11-15T03:06:42.305Z,97415.34
2023-11-15T03:09:09.787Z,97406.38
2023-11-15T03:11:38.782Z,97404.66
2023-11-15T03:14:06.302Z,97416.97
2023-11-15T03:16:33.768Z,97418.00
2023-11-15T03:19:01.255Z,97425.94
2023-11-15T03:21:29.403Z,97422.38
2023-11-15T03:23:56.920Z,97426.56
2023-11-15T03:26:25.283Z,97434.28
2023-11-15T03:28:54.117Z,97429.72
2023-11-15T03:31:21.973Z,97432.22
2023-11-15T03:33:49.671Z,97449.50
2023-11-15T03:36:17.526Z,97438.88
2023-11-15T03:39:03.940Z,97444.66
2023-11-15T03:41:31.433Z,97452.75
2023-11-15T03:44:00.293Z,97449.84
2023-11-15T03:46:27.896Z,97462.31
2023-11-15T03:48:55.354Z,97449.81
2023-11-15T03:51:23.210Z,97455.22
2023-11-15T03:53:50.768Z,97458.78
2023-11-15T03:56:18.241Z,97465.44
2023-11-15T03:58:45.780Z,97469.63
2023-11-15T04:01:15.232Z,97468.16
2023-11-15T04:03:43.198Z,97478.81
2023-11-15T04:06:11.103Z,97479.63
2023-11-15T04:08:38.712Z,97496.91
2023-11-15T04:11:06.350Z,97489.19
2023-11-15T04:13:35.494Z,97488.16
2023-11-15T04:16:04.490Z,97500.84
2023-11-15T04:18:34.276Z,97499.19
2023-11-15T04:21:02.044Z,97496.03
2023-11-15T04:23:29.841Z,97502.28
2023-11-15T04:25:59.499Z,97499.94
2023-11-15T04:28:27.103Z,97508.28
2023-11-15T04:30:54.577Z,97514.34
2023-11-15T04:33:22.175Z,97517.66
2023-11-15T04:35:51.080Z,97524.97
2023-11-15T04:38:18.534Z,97518.13
2023-11-15T04:40:46.574Z,97530.41
2023-11-15T04:43:14.215Z,97529.38
2023-11-15T04:45:41.791Z,97537.06
2023-11-15T04:48:09.352Z,97530.63
2023-11-15T04:50:37.617Z,97541.03
2023-11-15T04:53:08.295Z,97547.09
2023-11-15T04:55:35.949Z,97561.66
2023-11-15T04:58:03.380Z,97556.44
2023-11-15T05:00:49.631Z,97557.28
2023-11-15T05:03:17.255Z,97562.69
2023-11-15T05:05:46.948Z,97567.50
2023-11-15T05:08:16.077Z,97559.16
2023-11-15T05:10:43.479Z,97565.63
2023-11-15T05:13:32.573Z,97553.13
2023-11-15T05:16:00.354Z,97558.34
2023-11-15T05:18:27.943Z,97556.69
2023-11-15T05:20:55.500Z,97561.28
2023-11-15T05:23:24.807Z,97562.75
2023-11-15T05:25:52.301Z,97574.19
2023-11-15T05:28:22.034Z,97582.13
2023-11-15T05:30:49.600Z,97579.88
2023-11-15T05:33:17.211Z,97576.91
2023-11-15T05:35:46.183Z,97579.41
2023-11-15T05:38:14.392Z,97588.56
2023-11-15T05:40:44.710Z,97581.47
2023-11-15T05:43:12.347Z,97574.81
2023-11-15T05:45:39.780Z,97589.16
2023-11-15T05:48:07.598Z,97582.88
2023-11-15T05:50:35.201Z,97595.78
2023-11-15T05:53:02.755Z,97601.38
2023-11-15T05:55:50.014Z,97602.41
2023-11-15T05:58:17.281Z,97605.53
2023-11-15T06:01:04.338Z,97602.59
2023-11-15T06:03:31.857Z,97600.50
2023-11-15T06:06:00.514Z,97599.69
2023-11-15T06:08:28.025Z,97591.13
2023-11-15T06:10:56.830Z,97592.97
2023-11-15T06:13:27.146Z,97596.09
2023-11-15T06:15:54.577Z,97603.19
2023-11-15T06:18:22.935Z,97601.09
2023-11-15T06:20:51.231Z,97615.03
2023-11-15T06:23:18.866Z,97614.44
2023-11-15T06:25:47.361Z,97618.81
2023-11-15T06:28:16.151Z,97620.75
2023-11-15T06:30:46.198Z,97634.53
2023-11-15T06:33:14.024Z,97627.41
2023-11-15T06:35:41.879Z,97649.31
2023-11-15T06:38:09.611Z,97643.25
2023-11-15T06:40:37.077Z,97640.09
2023-11-15T06:43:04.689Z,97646.16
2023-11-15T06:45:33.627Z,97664.91
2023-11-15T06:48:01.726Z,97664.69
2023-11-15T06:50:29.648Z,97665.72
2023-11-15T06:52:57.199Z,97683.84
2023-11-15T06:55:24.748Z,97676.78
2023-11-15T06:57:52.335Z,97677.81
2023-11-15T07:00:43.239Z,97685.09
2023-11-15T07:03:13.503Z,97689.25
2023-11-15T07:05:42.069Z,97697.72
2023-11-15T07:08:11.072Z,97702.13
2023-11-15T07:10:38.780Z,97693.75
2023-11-15T07:13:08.354Z,97686.06
2023-11-15T07:15:36.590Z,97709.75
2023-11-15T07:18:05.583Z,97702.66
2023-11-15T07:20:33.179Z,97709.09
2023-11-15T07:23:00.672Z,97716.59
2023-11-15T07:25:46.802Z,97722.19
2023-11-15T07:28:14.280Z,97729.66
2023-11-15T07:30:43.334Z,97733.41
2023-11-15T07:33:12.310Z,97737.34
2023-11-15T07:35:40.068Z,97743.19
2023-11-15T07:38:10.602Z,97745.28
2023-11-15T07:40:38.617Z,97748.81
2023-11-15T07:43:24.754Z,97747.19
2023-11-15T07:45:55.080Z,97744.34
2023-11-15T07:48:24.560Z,97746.84
2023-11-15T07:50:52.578Z,97749.34
2023-11-15T07:53:20.193Z,97745.41
2023-11-15T07:55:47.700Z,97737.72
2023-11-15T07:58:18.360Z,97736.34
2023-11-15T08:00:45.846Z,97750.97
2023-11-15T08:03:33.152Z,97739.34
2023-11-15T08:06:00.720Z,97742.91
2023-11-15T08:08:28.272Z,97724.13
2023-11-15T08:10:55.778Z,97733.81
2023-11-15T08:13:24.138Z,97738.41
2023-11-15T08:15:51.905Z,97744.09
2023-11-15T08:18:19.634Z,97749.53
2023-11-15T08:20:48.795Z,97752.69
2023-11-15T08:23:16.458Z,97751.66
2023-11-15T08:25:49.472Z,97761.06
2023-11-15T08:28:17.127Z,97756.66
2023-11-15T08:30:46.778Z,97758.72
2023-11-15T08:33:17.834Z,97767.31
2023-11-15T08:35:48.145Z,97776.63
2023-11-15T08:38:20.763Z,97764.94
2023-11-15T08:41:07.497Z,97774.91
2023-11-15T08:43:53.461Z,97782.25
2023-11-15T08:46:21.375Z,97780.81
2023-11-15T08:48:52.829Z,97780.84
2023-11-15T08:51:20.646Z,97779.41
2023-11-15T08:53:49.546Z,97788.38
2023-11-15T08:56:17.098Z,97791.94
2023-11-15T08:58:44.662Z,97790.22
2023-11-15T09:01:12.172Z,97794.34
2023-11-15T09:03:58.460Z,97785.81
2023-11-15T09:06:26.128Z,97787.63
2023-11-15T09:08:55.764Z,97787.63
2023-11-15T09:11:23.391Z,97790.81
2023-11-15T09:13:51.169Z,97796.66
2023-11-15T09:16:20.439Z,97792.28
2023-11-15T09:18:49.748Z,97796.03
2023-11-15T09:21:36.141Z,97799.34
2023-11-15T09:24:06.233Z,97798.75
2023-11-15T09:26:33.962Z,97812.72
2023-11-15T09:29:01.550Z,97805.66
2023-11-15T09:31:29.062Z,97815.53
2023-11-15T09:34:15.315Z,97825.81
2023-11-15T09:36:43.655Z,97820.84
2023-11-15T09:39:15.901Z,97823.78
2023-11-15T09:41:50.206Z,97830.47
2023-11-15T09:44:21.086Z,97830.28
2023-11-15T09:47:09.053Z,97832.81
2023-11-15T09:49:37.742Z,97836.81
2023-11-15T09:52:06.938Z,97834.91
2023-11-15T09:54:38.204Z,97841.13
2023-11-15T09:57:09.061Z,97839.59
2023-11-15T09:59:36.912Z,97839.59
2023-11-15T10:02:06.101Z,97842.91
2023-11-15T10:04:33.599Z,97845.63
2023-11-15T10:07:06.108Z,97844.78
2023-11-15T10:09:38.063Z,97841.47
2023-11-15T10:12:09.742Z,97850.84
2023-11-15T10:14:52.363Z,97840.00
2023-11-15T10:17:21.869Z,97843.38
2023-11-15T10:19:49.814Z,97840.09
2023-11-15T10:22:18.967Z,97839.88
2023-11-15T10:25:06.013Z,97845.03
2023-11-15T10:27:37.091Z,97840.47
2023-11-15T10:30:13.957Z,97848.78
2023-11-15T10:32:46.792Z,97851.81
2023-11-15T10:35:28.572Z,97844.78
2023-11-15T10:37:56.891Z,97846.25
2023-11-15T10:40:31.181Z,97838.75
2023-11-15T10:43:00.066Z,97834.63
2023-11-15T10:45:32.215Z,97834.22
2023-11-15T10:48:05.294Z,97837.34
2023-11-15T10:50:35.050Z,97837.78
2023-11-15T10:53:03.382Z,97825.94
2023-11-15T10:55:32.640Z,97832.06
2023-11-15T10:58:03.931Z,97839.38
2023-11-15T11:00:32.465Z,97833.50
2023-11-15T11:03:00.103Z,97838.13
2023-11-15T11:05:42.089Z,97829.38
2023-11-15T11:08:23.443Z,97839.38
2023-11-15T11:11:03.467Z,97846.69
2023-11-15T11:13:34.449Z,97833.53
2023-11-15T11:16:35.795Z,97843.09
2023-11-15T11:19:12.512Z,97830.97
2023-11-15T11:22:13.151Z,97831.81
2023-11-15T11:24:47.175Z,97826.41
2023-11-15T11:27:32.914Z,97820.31
2023-11-15T11:30:17.051Z,97829.31
2023-11-15T11:32:48.762Z,97811.38
2023-11-15T11:35:31.942Z,97816.81
2023-11-15T11:38:01.398Z,97819.41
2023-11-15T11:40:32.870Z,97813.56
2023-11-15T11:43:16.251Z,97798.88
2023-11-15T11:46:30.661Z,97796.69
2023-11-15T11:53:04.729Z,97802.41
2023-11-15T11:55:33.368Z,97807.47
2023-11-15T11:58:03.349Z,97810.47
2023-11-15T12:00:32.319Z,97806.72
2023-11-15T12:03:03.521Z,97801.50
2023-11-15T12:05:33.909Z,97803.38
2023-11-15T12:08:03.414Z,97799.84
2023-11-15T12:10:32.057Z,97780.00
2023-11-15T12:13:01.620Z,97793.38
2023-11-15T12:15:29.556Z,97793.19
2023-11-15T12:18:00.976Z,97790.28
2023-11-15T12:20:30.264Z,97799.22
2023-11-15T12:23:06.161Z,97795.03
2023-11-15T12:25:34.384Z,97787.53
2023-11-15T12:28:02.978Z,97796.75
2023-11-15T12:30:33.665Z,97787.31
2023-11-15T12:33:03.944Z,97785.25
2023-11-15T12:35:32.735Z,97792.75
2023-11-15T12:38:05.531Z,97791.72
2023-11-15T12:40:35.746Z,97790.03
2023-11-15T12:43:19.172Z,97786.47
2023-11-15T12:45:47.555Z,97786.47
2023-11-15T12:48:16.797Z,97799.22
2023-11-15T12:50:49.582Z,97806.94
2023-11-15T12:53:18.735Z,97804.66
2023-11-15T12:55:50.587Z,97801.50
2023-11-15T12:58:19.251Z,97803.53
2023-11-15T13:01:00.551Z,97802.50
2023-11-15T13:03:32.433Z,97821.75
2023-11-15T13:06:10.710Z,97785.63
2023-11-15T13:08:39.260Z,97801.69
2023-11-15T13:11:07.051Z,97801.59
2023-11-15T13:13:34.723Z,97795.75
2023-11-15T13:16:02.422Z,97795.09
2023-11-15T13:18:31.388Z,97793.22
2023-11-15T13:20:59.374Z,97799.16
2023-11-15T13:23:28.316Z,97790.41
2023-11-15T13:25:55.869Z,97804.84
2023-11-15T13:28:23.565Z,97793.13
2023-11-15T13:30:51.426Z,97798.78
2023-11-15T13:33:19.591Z,97802.56
2023-11-15T13:35:50.479Z,97795.06
2023-11-15T13:38:18.006Z,97797.16
2023-11-15T13:40:46.134Z,97794.22
2023-11-15T13:43:13.754Z,97799.47
2023-11-15T13:45:43.324Z,97813.88
2023-11-15T13:48:11.042Z,97801.97
2023-11-15T13:50:38.590Z,97809.72
2023-11-15T13:53:07.497Z,97807.19
2023-11-15T13:55:35.324Z,97816.78
2023-11-15T13:58:03.169Z,97821.16
2023-11-15T14:00:34.830Z,97822.44
2023-11-15T14:03:07.596Z,97828.72
2023-11-15T14:05:35.351Z,97826.00
2023-11-15T14:08:06.091Z,97824.53
2023-11-15T14:10:35.169Z,97829.97
2023-11-15T14:13:06.122Z,97828.72
2023-11-15T14:15:34.009Z,97840.78
2023-11-15T14:18:05.032Z,97837.72
2023-11-15T14:20:32.749Z,97835.84
2023-11-15T14:23:00.345Z,97851.69
2023-11-15T14:25:33.089Z,97848.97
2023-11-15T14:28:04.071Z,97852.34
2023-11-15T14:30:31.919Z,97844.00
2023-11-15T14:32:59.906Z,97850.25
2023-11-15T14:35:28.489Z,97856.13
2023-11-15T14:37:57.162Z,97866.97
2023-11-15T14:40:25.740Z,97855.28
2023-11-15T14:42:57.002Z,97864.66
2023-11-15T14:45:26.597Z,97876.78
2023-11-15T14:47:54.832Z,97873.88
2023-11-15T14:50:24.274Z,97862.78
2023-11-15T14:53:09.053Z,97880.97
2023-11-15T14:55:36.953Z,97880.13
2023-11-15T14:58:04.896Z,97863.38
2023-11-15T15:00:35.241Z,97883.03
2023-11-15T15:03:03.853Z,97884.47
2023-11-15T15:05:31.462Z,97884.88
2023-11-15T15:08:01.231Z,97882.97
2023-11-15T15:10:28.783Z,97880.06
2023-11-15T15:12:56.418Z,97887.59
2023-11-15T15:15:24.604Z,97889.88
2023-11-15T15:17:53.640Z,97900.94
2023-11-15T15:20:21.354Z,97879.81
2023-11-15T15:22:49.301Z,97900.50
2023-11-15T15:25:17.228Z,97917.63
2023-11-15T15:27:45.442Z,97904.72
2023-11-15T15:30:18.243Z,97903.03
2023-11-15T15:32:46.622Z,97909.91
2023-11-15T15:35:16.557Z,97912.84
2023-11-15T15:37:48.468Z,97908.41
2023-11-15T15:40:19.901Z,97914.88
2023-11-15T15:42:48.322Z,97908.84
2023-11-15T15:45:16.496Z,97925.50
2023-11-15T15:47:45.146Z,97919.69
2023-11-15T15:50:12.869Z,97929.91
2023-11-15T15:52:42.601Z,97936.38
2023-11-15T15:55:11.563Z,97937.81
2023-11-15T15:57:39.427Z,97955.78
2023-11-15T16:00:08.348Z,97940.72
2023-11-15T16:02:36.406Z,97956.78
2023-11-15T16:05:04.718Z,97952.38
2023-11-15T16:07:33.432Z,97947.75
2023-11-15T16:10:02.957Z,97946.88
2023-11-15T16:12:37.235Z,97958.97
2023-11-15T16:15:09.479Z,97951.84
2023-11-15T16:17:37.464Z,97956.59
2023-11-15T16:20:06.161Z,97952.81
2023-11-15T16:22:33.561Z,97964.44
2023-11-15T16:25:02.498Z,97961.09
2023-11-15T16:27:34.489Z,97964.59
2023-11-15T16:30:06.452Z,97956.81
2023-11-15T16:32:36.578Z,97952.78
2023-11-15T16:35:06.636Z,97960.66
2023-11-15T16:37:36.865Z,97958.78
2023-11-15T16:40:09.103Z,97963.78
2023-11-15T16:42:39.931Z,97968.13
2023-11-15T16:45:09.095Z,97973.38
2023-11-15T16:47:39.303Z,97976.06
2023-11-15T16:50:08.405Z,97973.63
2023-11-15T16:52:36.436Z,97981.13
2023-11-15T16:55:05.006Z,97981.50
2023-11-15T16:57:35.668Z,97981.94
2023-11-15T17:00:03.538Z,97997.75
2023-11-15T17:02:31.164Z,98001.50
2023-11-15T17:04:58.665Z,98002.16
2023-11-15T17:07:26.258Z,98004.84
2023-11-15T17:09:53.857Z,98014.09
2023-11-15T17:12:24.045Z,98008.66
2023-11-15T17:14:53.073Z,98022.88
2023-11-15T17:17:20.827Z,98022.03
2023-11-15T17:19:48.374Z,98025.56
2023-11-15T17:22:16.225Z,98029.69
2023-11-15T17:24:44.419Z,98035.88
2023-11-15T17:27:11.980Z,98034.59
2023-11-15T17:29:40.602Z,98040.22
2023-11-15T17:32:09.951Z,98052.28
2023-11-15T17:34:37.644Z,98037.84
2023-11-15T17:37:05.489Z,98047.19
2023-11-15T17:39:33.312Z,98039.00
2023-11-15T17:42:06.851Z,98038.09
2023-11-15T17:44:34.481Z,98031.47
2023-11-15T17:47:02.053Z,98041.25
2023-11-15T17:49:33.502Z,98044.59
2023-11-15T17:52:03.013Z,98056.47
2023-11-15T17:54:33.528Z,98054.59
2023-11-15T17:57:01.139Z,98058.53
2023-11-15T17:59:28.818Z,98062.09
2023-11-15T18:01:58.379Z,98050.59
2023-11-15T18:04:27.161Z,98047.91
2023-11-15T18:06:55.919Z,98052.91
2023-11-15T18:09:27.579Z,98047.31
2023-11-15T18:11:55.234Z,98048.81
2023-11-15T18:14:22.801Z,98050.88
2023-11-15T18:16:50.272Z,98061.50
2023-11-15T18:19:21.945Z,98053.38
2023-11-15T18:21:50.020Z,98057.56
2023-11-15T18:24:19.204Z,98055.69
2023-11-15T18:26:49.462Z,98055.50
2023-11-15T18:29:17.051Z,98030.97
2023-11-15T18:31:44.707Z,98067.19
2023-11-15T18:34:12.510Z,98065.50
2023-11-15T18:36:44.294Z,98054.09
2023-11-15T18:39:18.105Z,98056.16
2023-11-15T18:41:49.426Z,98061.38
2023-11-15T18:44:17.286Z,98068.91
2023-11-15T18:46:49.638Z,98064.03
2023-11-15T18:49:18.640Z,98072.22
2023-11-15T18:51:48.421Z,98077.69
2023-11-15T18:54:19.325Z,98073.56
2023-11-15T18:56:47.298Z,98067.28
2023-11-15T18:59:16.109Z,98075.25
2023-11-15T19:01:48.063Z,98066.53
2023-11-15T19:04:15.771Z,98077.59
2023-11-15T19:06:44.565Z,98073.81
2023-11-15T19:09:12.172Z,98073.25
2023-11-15T19:11:40.523Z,98071.56
2023-11-15T19:14:08.049Z,98065.97
2023-11-15T19:16:37.058Z,98070.31
2023-11-15T19:19:05.897Z,98064.91
2023-11-15T19:21:33.416Z,98079.53
2023-11-15T19:24:01.574Z,98069.88
2023-11-15T19:26:32.148Z,98072.16
2023-11-15T19:28:59.618Z,98066.66
2023-11-15T19:31:27.120Z,98070.59
2023-11-15T19:33:57.012Z,98068.03
2023-11-15T19:36:24.599Z,98066.75
2023-11-15T19:38:52.230Z,98070.66
2023-11-15T19:41:19.919Z,98072.94
2023-11-15T19:43:47.715Z,98068.72
2023-11-15T19:46:18.822Z,98077.69
2023-11-15T19:48:47.654Z,98072.03
2023-11-15T19:51:36.992Z,98074.75
2023-11-15T19:54:08.186Z,98068.09
2023-11-15T19:56:36.040Z,98063.91
2023-11-15T19:59:04.818Z,98068.09
2023-11-15T20:01:32.368Z,98062.03
2023-11-15T20:04:02.060Z,98054.28
2023-11-15T20:06:31.977Z,98035.72
2023-11-15T20:08:59.829Z,98057.97
2023-11-15T20:11:27.891Z,98056.28
2023-11-15T20:13:55.687Z,98056.28
2023-11-15T20:16:24.379Z,98065.25
2023-11-15T20:18:52.051Z,98060.00
2023-11-15T20:21:20.776Z,98062.09
2023-11-15T20:23:49.438Z,98064.16
2023-11-15T20:26:17.013Z,98062.09
2023-11-15T20:28:44.937Z,98060.84
2023-11-15T20:31:12.740Z,98056.44
2023-11-15T20:33:42.489Z,98061.25
2023-11-15T20:36:11.497Z,98072.53
2023-11-15T20:38:39.380Z,98066.09
2023-11-15T20:41:08.739Z,98065.69
2023-11-15T20:43:37.103Z,98062.13
2023-11-15T20:46:17.279Z,98062.34
2023-11-15T20:48:47.174Z,98065.25
2023-11-15T20:51:15.134Z,98071.91
2023-11-15T20:53:42.855Z,98074.81
2023-11-15T20:56:11.674Z,98058.28
2023-11-15T20:58:39.175Z,98055.78
2023-11-15T21:01:07.782Z,98053.25
2023-11-15T21:03:35.508Z,98041.13
2023-11-15T21:06:05.326Z,98039.91
2023-11-15T21:08:35.970Z,98044.75
2023-11-15T21:11:04.663Z,98033.66
2023-11-15T21:13:33.404Z,98034.50
2023-11-15T21:16:07.291Z,98032.22
2023-11-15T21:18:34.900Z,98024.47
2023-11-15T21:21:03.579Z,98020.09
2023-11-15T21:23:31.624Z,98014.69
2023-11-15T21:25:59.277Z,98023.00
2023-11-15T21:28:26.761Z,98019.00
2023-11-15T21:30:55.628Z,98024.34
2023-11-15T21:33:23.157Z,98022.59
2023-11-15T21:35:52.838Z,98022.16
2023-11-15T21:38:20.565Z,98023.56
2023-11-15T21:40:48.529Z,98019.19
2023-11-15T21:43:16.063Z,98010.94
2023-11-15T21:45:43.642Z,98016.56
2023-11-15T21:48:12.617Z,98016.56
2023-11-15T21:50:40.062Z,98005.09
2023-11-15T21:53:07.905Z,98007.31
2023-11-15T21:55:35.497Z,98012.47
2023-11-15T21:58:03.705Z,98010.63
2023-11-15T22:00:32.025Z,98016.25
2023-11-15T22:02:59.682Z,98005.16
2023-11-15T22:05:28.637Z,98008.41
2023-11-15T22:07:56.267Z,98004.31
2023-11-15T22:10:23.965Z,98008.25
2023-11-15T22:12:52.108Z,98002.75
2023-11-15T22:15:21.213Z,98009.59
2023-11-15T22:17:49.288Z,98003.16
2023-11-15T22:20:16.895Z,97998.94
2023-11-15T22:22:46.030Z,97999.97
2023-11-15T22:25:13.684Z,97994.94
2023-11-15T22:27:41.224Z,98000.53
2023-11-15T22:30:11.185Z,98001.78
2023-11-15T22:32:39.604Z,97998.84
2023-11-15T22:35:08.167Z,97999.69
2023-11-15T22:37:35.777Z,97993.09
2023-11-15T22:40:07.074Z,97988.69
2023-11-15T22:42:34.631Z,97987.00
2023-11-15T22:45:02.984Z,97984.22
2023-11-15T22:47:30.677Z,97979.03
2023-11-15T22:49:58.476Z,97973.59
2023-11-15T22:52:25.943Z,97984.22
2023-11-15T22:54:53.438Z,97980.50
2023-11-15T22:57:22.365Z,97979.81
2023-11-15T22:59:52.340Z,97974.81
2023-11-15T23:02:21.006Z,97969.59
2023-11-15T23:04:48.835Z,97955.59
2023-11-15T23:07:21.401Z,97965.00
2023-11-15T23:09:49.252Z,97963.59
2023-11-15T23:12:17.078Z,97960.25
2023-11-15T23:14:46.467Z,97964.00
2023-11-15T23:17:13.916Z,97962.13
2023-11-15T23:19:41.463Z,97961.09
2023-11-15T23:22:09.459Z,97956.91
2023-11-15T23:24:37.967Z,97944.66
2023-11-15T23:27:06.173Z,97950.06
2023-11-15T23:29:34.088Z,97953.25
2023-11-15T23:32:06.468Z,97953.72
2023-11-15T23:34:34.044Z,97952.50
2023-11-15T23:37:01.594Z,97950.16
2023-11-15T23:39:29.057Z,97948.56
2023-11-15T23:41:56.574Z,97945.84
2023-11-15T23:44:24.041Z,97942.56
2023-11-15T23:46:52.865Z,97937.38
2023-11-15T23:49:22.144Z,97944.25
2023-11-15T23:51:49.581Z,97945.53
2023-11-15T23:54:18.300Z,97937.81
2023-11-15T23:56:45.929Z,97945.84
2023-11-15T23:59:13.495Z,97948.31
